Time;durP1;ratioP1;P1;durP2;ratioP2;P2;SDS_P1;SDS_P2;PMS_P1;PMS_P2;Temp;Humidity;BMP_temperature;BMP_pressure;BME280_temperature;BME280_humidity;BME280_pressure;Samples;Min_cycle;Max_cycle;Signal;HPM_P1;HPM_P2
2023/03/26 00:01:45;;;;;;;25.83;14.88;;;;;;;12.48;79.84;100398.56;4902318;29;20396;-76
2023/03/26 00:04:18;;;;;;;21.63;13.40;;;;;;;12.40;80.44;100393.72;4899547;29;20056;-77
2023/03/26 00:06:49;;;;;;;24.33;14.20;;;;;;;12.38;80.84;100395.94;4895860;29;20057;-77
2023/03/26 00:09:17;;;;;;;23.30;14.13;;;;;;;12.26;81.71;100402.69;4896847;29;20060;-77
2023/03/26 00:11:45;;;;;;;26.65;14.70;;;;;;;12.17;83.24;100410.75;4898805;29;20040;-76
2023/03/26 00:14:16;;;;;;;25.27;15.50;;;;;;;12.02;84.32;100405.47;4896152;29;20076;-77
2023/03/26 00:16:46;;;;;;;24.50;15.30;;;;;;;11.92;85.48;100409.97;4895394;29;20056;-77
2023/03/26 00:19:14;;;;;;;22.85;14.63;;;;;;;11.88;86.07;100397.13;4896496;29;20060;-77
2023/03/26 00:21:42;;;;;;;23.05;15.88;;;;;;;11.77;87.14;100390.94;4897034;29;20048;-76
2023/03/26 00:24:16;;;;;;;27.55;14.60;;;;;;;11.77;87.53;100400.00;4906049;29;20048;-77
2023/03/26 00:26:47;;;;;;;23.17;15.05;;;;;;;11.79;87.15;100406.00;4914709;29;20048;-77
2023/03/26 00:29:15;;;;;;;23.17;14.43;;;;;;;11.76;87.25;100406.59;4888139;29;20050;-77
2023/03/26 00:31:44;;;;;;;26.63;15.77;;;;;;;11.75;87.62;100417.84;4898692;29;20072;-76
2023/03/26 00:34:17;;;;;;;26.00;15.80;;;;;;;11.54;88.88;100407.91;4898373;29;20067;-76
2023/03/26 00:36:45;;;;;;;24.52;15.18;;;;;;;11.58;89.03;100410.91;4879284;29;20049;-77
2023/03/26 00:39:14;;;;;;;23.38;14.77;;;;;;;11.62;88.18;100405.63;4895911;29;20056;-77
2023/03/26 00:41:43;;;;;;;29.05;15.98;;;;;;;11.64;88.92;100400.72;4879072;29;20052;-76
2023/03/26 00:44:11;;;;;;;28.45;16.90;;;;;;;11.54;89.82;100407.91;4894975;29;20063;-77
2023/03/26 00:46:39;;;;;;;26.05;15.80;;;;;;;11.68;88.24;100404.47;4900081;29;20404;-77
2023/03/26 00:49:09;;;;;;;25.48;16.15;;;;;;;11.74;88.10;100400.59;4882849;29;20074;-77
2023/03/26 00:51:37;;;;;;;25.98;15.23;;;;;;;11.68;85.81;100402.56;4899869;29;20071;-76
2023/03/26 00:54:07;;;;;;;23.02;14.40;;;;;;;11.66;85.07;100401.22;4894551;29;20072;-77
2023/03/26 00:56:35;;;;;;;22.50;13.57;;;;;;;11.67;83.74;100392.72;4918813;29;20056;-77
2023/03/26 00:59:03;;;;;;;27.38;13.95;;;;;;;11.69;83.11;100389.69;4901692;29;20044;-77
2023/03/26 01:01:31;;;;;;;22.83;13.93;;;;;;;11.60;82.53;100374.97;4902218;29;20048;-77
2023/03/26 01:04:26;;;;;;;22.60;13.20;;;;;;;11.67;82.35;100375.44;4913910;29;20048;-76
2023/03/26 01:07:03;;;;;;;20.70;12.50;;;;;;;11.62;82.71;100359.88;4897274;29;20554;-77
2023/03/26 01:09:35;;;;;;;22.85;13.82;;;;;;;11.65;82.56;100350.25;4918616;29;20051;-77
2023/03/26 01:12:07;;;;;;;21.98;13.52;;;;;;;11.63;82.59;100357.97;4904616;29;20056;-76
2023/03/26 01:14:37;;;;;;;22.80;13.57;;;;;;;11.55;82.63;100359.41;4901034;29;20060;-76
2023/03/26 01:17:06;;;;;;;19.30;11.98;;;;;;;11.48;82.95;100364.44;4899524;29;20492;-77
2023/03/26 01:20:04;;;;;;;20.35;13.13;;;;;;;11.41;84.35;100376.56;4898745;29;20045;-77
2023/03/26 01:22:35;;;;;;;22.30;13.07;;;;;;;11.39;84.28;100359.59;4899867;29;20412;-76
2023/03/26 01:25:03;;;;;;;22.83;13.68;;;;;;;11.37;84.35;100370.03;4910566;29;20060;-77
2023/03/26 01:27:41;;;;;;;19.08;13.23;;;;;;;11.31;84.73;100356.66;4903629;29;20059;-76
2023/03/26 01:30:20;;;;;;;21.80;11.95;;;;;;;11.34;85.02;100356.09;4900079;29;20056;-77
2023/03/26 01:33:32;;;;;;;21.25;13.35;;;;;;;11.38;84.68;100351.66;4900452;29;20044;-77
2023/03/26 01:36:22;;;;;;;21.45;12.23;;;;;;;11.37;84.93;100345.38;4890808;29;20056;-77
2023/03/26 01:38:58;;;;;;;18.95;12.35;;;;;;;11.34;84.58;100345.94;4899604;29;20053;-77
2023/03/26 01:41:36;;;;;;;20.33;13.30;;;;;;;11.37;84.42;100337.16;4899390;29;20056;-76
2023/03/26 01:44:21;;;;;;;22.88;13.27;;;;;;;11.42;84.70;100333.53;4899657;29;20061;-76
2023/03/26 01:46:51;;;;;;;21.65;12.55;;;;;;;11.40;84.69;100322.06;4881702;29;20049;-77
2023/03/26 01:49:19;;;;;;;20.80;13.13;;;;;;;11.37;84.88;100328.94;4899487;29;20507;-76
2023/03/26 01:51:47;;;;;;;19.77;12.63;;;;;;;11.44;84.11;100334.03;4899685;29;20066;-77
2023/03/26 01:54:20;;;;;;;24.75;13.70;;;;;;;11.37;83.76;100323.44;4882560;29;20048;-76
2023/03/26 01:56:50;;;;;;;24.08;12.10;;;;;;;11.44;84.38;100323.06;4898857;29;20048;-76
2023/03/26 01:59:33;;;;;;;22.48;13.48;;;;;;;11.49;83.73;100319.47;4902513;29;20040;-77
2023/03/26 02:02:08;;;;;;;23.00;13.43;;;;;;;11.54;83.02;100312.00;4897699;29;20051;-77
2023/03/26 02:04:52;;;;;;;21.65;12.82;;;;;;;11.41;83.43;100315.47;4900871;29;20040;-77
2023/03/26 02:07:34;;;;;;;21.08;13.85;;;;;;;11.35;83.07;100319.38;4917074;29;20052;-77
2023/03/26 02:10:09;;;;;;;22.10;13.95;;;;;;;11.21;84.08;100325.56;4917809;29;20063;-77
2023/03/26 02:12:41;;;;;;;27.27;14.98;;;;;;;11.17;84.67;100329.97;4898900;29;20040;-77
2023/03/26 02:15:11;;;;;;;23.58;13.95;;;;;;;11.01;85.09;100321.09;4898667;29;20052;-77
2023/03/26 02:17:39;;;;;;;23.85;13.27;;;;;;;11.01;85.34;100330.09;4887366;29;20059;-77
2023/03/26 02:20:10;;;;;;;24.27;14.38;;;;;;;10.87;86.29;100337.38;4900568;29;20048;-77
2023/03/26 02:22:39;;;;;;;26.92;14.32;;;;;;;10.88;86.24;100331.63;4894149;29;20060;-77
2023/03/26 02:25:12;;;;;;;25.90;14.07;;;;;;;10.78;86.33;100334.44;4881710;29;20070;-77
2023/03/26 02:27:41;;;;;;;23.17;13.30;;;;;;;10.54;87.64;100350.78;4867007;29;20049;-76
2023/03/26 02:30:24;;;;;;;21.92;13.35;;;;;;;10.60;87.94;100355.09;4897037;29;20040;-76
2023/03/26 02:32:57;;;;;;;23.48;13.68;;;;;;;10.69;88.17;100356.13;4881122;29;20410;-76
2023/03/26 02:35:32;;;;;;;23.20;13.55;;;;;;;10.71;87.90;100358.59;4881751;29;20508;-76
2023/03/26 02:38:02;;;;;;;22.10;13.48;;;;;;;10.63;87.48;100365.50;4881435;29;20489;-77
2023/03/26 02:40:30;;;;;;;20.88;12.30;;;;;;;10.62;87.55;100363.88;4898212;29;20061;-77
2023/03/26 02:42:59;;;;;;;21.65;13.20;;;;;;;10.61;87.90;100352.09;4882629;29;20037;-76
2023/03/26 02:45:29;;;;;;;20.85;12.75;;;;;;;10.63;87.54;100351.81;4874216;29;20056;-77
2023/03/26 02:48:19;;;;;;;22.92;13.52;;;;;;;10.56;87.66;100354.06;4897870;29;20064;-77
2023/03/26 02:51:07;;;;;;;22.75;14.52;;;;;;;10.54;87.63;100350.78;4880696;29;20060;-77
2023/03/26 02:53:46;;;;;;;24.00;14.13;;;;;;;10.53;87.69;100354.63;4866128;29;20052;-77
2023/03/26 02:56:47;;;;;;;24.73;15.07;;;;;;;10.39;88.33;100349.78;4890465;29;20445;-76
2023/03/26 02:59:23;;;;;;;27.10;14.85;;;;;;;10.44;88.59;100351.66;4883752;29;20076;-77
2023/03/26 03:02:12;;;;;;;25.38;14.32;;;;;;;10.40;88.36;100354.13;4910985;29;20049;-76
2023/03/26 03:04:41;;;;;;;24.42;15.43;;;;;;;10.45;87.42;100347.81;4877887;29;20053;-77
2023/03/26 03:07:13;;;;;;;21.88;14.20;;;;;;;10.46;87.57;100346.75;4881000;29;20047;-76
2023/03/26 03:09:41;;;;;;;22.80;14.07;;;;;;;10.39;87.90;100338.00;4880972;29;20045;-77
2023/03/26 03:12:29;;;;;;;27.30;13.73;;;;;;;10.24;88.48;100347.94;4887281;29;20063;-76
2023/03/26 03:14:57;;;;;;;24.83;13.63;;;;;;;10.26;88.49;100345.75;4899302;29;20067;-77
2023/03/26 03:17:25;;;;;;;24.88;14.13;;;;;;;10.37;87.81;100335.56;4899226;29;20125;-77
2023/03/26 03:19:53;;;;;;;24.52;14.65;;;;;;;10.34;87.93;100333.38;4898846;29;20040;-77
2023/03/26 03:22:21;;;;;;;25.67;14.63;;;;;;;10.19;88.06;100337.88;4893951;29;20040;-76
2023/03/26 03:24:56;;;;;;;21.50;14.02;;;;;;;10.17;89.11;100337.31;4883579;29;20045;-77
2023/03/26 03:27:25;;;;;;;23.05;13.40;;;;;;;10.13;89.16;100343.66;4863999;29;20049;-77
2023/03/26 03:30:08;;;;;;;22.42;12.98;;;;;;;10.06;88.34;100335.75;4880579;29;20048;-77
2023/03/26 03:32:45;;;;;;;24.73;14.25;;;;;;;10.11;88.58;100332.97;4897504;29;20488;-75
2023/03/26 03:35:18;;;;;;;22.67;13.27;;;;;;;10.15;89.26;100316.81;4897687;29;20051;-77
2023/03/26 03:37:49;;;;;;;24.92;13.32;;;;;;;10.12;90.08;100320.94;4897566;29;20496;-77
2023/03/26 03:40:18;;;;;;;23.17;13.50;;;;;;;10.18;89.67;100308.88;4915224;29;20507;-77
2023/03/26 03:42:46;;;;;;;22.35;13.85;;;;;;;10.19;89.65;100335.13;4885458;29;20431;-76
2023/03/26 03:45:22;;;;;;;27.92;14.30;;;;;;;10.14;90.45;100346.09;4892222;29;20063;-77
2023/03/26 03:48:10;;;;;;;24.42;13.80;;;;;;;10.25;89.89;100346.03;4897530;29;20056;-76
2023/03/26 03:50:42;;;;;;;25.88;14.43;;;;;;;10.20;89.83;100325.00;4896580;29;20051;-77
2023/03/26 03:53:35;;;;;;;25.98;13.98;;;;;;;10.23;90.30;100332.66;4901868;29;20045;-76
2023/03/26 03:56:09;;;;;;;27.45;14.30;;;;;;;10.14;91.03;100332.44;4879386;29;20045;-77
2023/03/26 03:59:07;;;;;;;24.92;14.30;;;;;;;10.11;90.71;100332.97;4893557;29;20056;-77
2023/03/26 04:01:37;;;;;;;27.23;14.90;;;;;;;10.14;90.34;100337.06;4897617;29;20044;-77
2023/03/26 04:04:12;;;;;;;23.50;14.45;;;;;;;10.13;89.65;100338.19;4887696;29;20044;-76
2023/03/26 04:06:55;;;;;;;22.63;13.75;;;;;;;10.19;88.73;100346.06;4880171;29;20053;-77
2023/03/26 04:09:26;;;;;;;23.45;13.73;;;;;;;10.16;88.80;100359.50;4879399;29;20048;-76
2023/03/26 04:11:57;;;;;;;26.20;14.27;;;;;;;10.03;88.66;100347.25;4879994;29;20052;-76
2023/03/26 04:14:38;;;;;;;24.45;13.60;;;;;;;9.98;89.54;100339.91;4879707;29;20053;-77
2023/03/26 04:17:14;;;;;;;22.25;13.80;;;;;;;9.90;90.45;100340.47;4894389;29;20040;-76
2023/03/26 04:19:44;;;;;;;23.73;13.88;;;;;;;9.88;91.31;100332.56;4896254;29;20488;-76
2023/03/26 04:22:13;;;;;;;25.17;14.63;;;;;;;9.90;90.83;100333.13;4880764;29;20040;-76
2023/03/26 04:24:53;;;;;;;24.23;13.38;;;;;;;9.82;90.89;100331.78;4889677;29;20041;-76
2023/03/26 04:27:42;;;;;;;24.38;13.68;;;;;;;9.74;90.93;100324.19;4890683;29;20056;-76
2023/03/26 04:30:19;;;;;;;26.73;14.45;;;;;;;9.83;90.34;100329.88;4890468;29;20048;-76
2023/03/26 04:32:57;;;;;;;23.02;14.40;;;;;;;9.87;89.78;100333.66;4898690;29;20044;-76
2023/03/26 04:35:29;;;;;;;23.50;14.38;;;;;;;9.83;89.67;100338.06;4899112;29;20407;-77
2023/03/26 04:37:57;;;;;;;24.38;14.05;;;;;;;9.82;89.66;100339.16;4912575;29;20052;-77
2023/03/26 04:40:30;;;;;;;22.20;13.65;;;;;;;9.77;89.43;100325.50;4888307;29;20055;-76
2023/03/26 04:43:01;;;;;;;23.50;13.98;;;;;;;9.70;90.02;100331.28;4896484;29;20044;-77
2023/03/26 04:46:01;;;;;;;24.83;14.13;;;;;;;9.66;89.83;100331.03;4862100;29;20421;-77
2023/03/26 04:48:32;;;;;;;25.27;14.13;;;;;;;9.58;89.28;100326.13;4887725;29;20052;-77
2023/03/26 04:51:00;;;;;;;21.73;12.70;;;;;;;9.57;88.12;100321.78;4870257;29;20404;-77
2023/03/26 04:53:28;;;;;;;22.20;12.82;;;;;;;9.49;88.91;100333.28;4879792;29;20476;-77
2023/03/26 04:56:58;;;;;;;21.23;11.90;;;;;;;9.36;89.27;100340.97;4896459;29;20052;-77
2023/03/26 04:59:44;;;;;;;21.88;13.30;;;;;;;9.35;89.00;100360.38;4879736;29;20055;-77
2023/03/26 05:02:14;;;;;;;18.98;12.10;;;;;;;9.36;88.79;100362.84;4879875;29;20056;-77
2023/03/26 05:04:48;;;;;;;23.63;13.18;;;;;;;9.38;89.16;100348.88;4879656;29;20056;-76
2023/03/26 05:07:23;;;;;;;20.13;12.63;;;;;;;9.35;89.26;100346.72;4899269;29;20048;-77
2023/03/26 05:09:56;;;;;;;20.58;12.98;;;;;;;9.30;90.00;100353.00;4900813;29;20063;-77
2023/03/26 05:12:59;;;;;;;27.48;13.00;;;;;;;9.34;88.87;100351.34;4858852;29;20073;-77
2023/03/26 05:15:32;;;;;;;24.33;13.13;;;;;;;9.38;89.07;100344.25;4872512;29;20068;-77
2023/03/26 05:18:15;;;;;;;20.73;12.15;;;;;;;9.46;88.96;100344.75;4880775;29;20053;-76
2023/03/26 05:20:48;;;;;;;22.70;12.80;;;;;;;9.43;88.48;100342.59;4893889;29;20117;-76
2023/03/26 05:23:16;;;;;;;23.20;13.25;;;;;;;9.38;89.30;100333.31;4878916;29;20053;-77
2023/03/26 05:25:50;;;;;;;27.08;14.10;;;;;;;9.42;89.95;100333.56;4878310;29;20036;-77
2023/03/26 05:28:23;;;;;;;21.95;13.82;;;;;;;9.43;90.09;100331.69;4897557;29;20053;-77
2023/03/26 05:31:00;;;;;;;23.58;13.85;;;;;;;10.24;88.92;100327.97;4897318;29;20041;-85
2023/03/26 05:33:32;;;;;;;21.05;13.10;;;;;;;10.76;84.18;100322.97;4881931;29;20670;-86
2023/03/26 05:36:14;;;;;;;19.40;12.18;;;;;;;11.03;81.92;100329.81;4882271;29;20527;-85
2023/03/26 05:38:48;;;;;;;20.95;12.10;;;;;;;11.23;79.30;100323.31;4883240;29;20048;-85
2023/03/26 05:41:36;;;;;;;21.92;12.13;;;;;;;11.18;79.67;100325.31;4902238;29;20056;-86
2023/03/26 05:44:04;;;;;;;22.10;12.32;;;;;;;11.40;78.69;100324.78;4915643;29;20373;-85
2023/03/26 05:46:32;;;;;;;21.08;12.27;;;;;;;11.56;78.15;100326.25;4898569;29;20052;-85
2023/03/26 05:49:00;;;;;;;21.27;12.35;;;;;;;11.27;79.70;100323.56;4880673;29;20052;-85
2023/03/26 05:51:33;;;;;;;23.92;12.43;;;;;;;11.03;80.99;100327.09;4881207;29;20049;-85
2023/03/26 05:54:20;;;;;;;27.00;12.18;;;;;;;11.02;81.40;100322.72;4879051;29;20047;-86
2023/03/26 05:57:07;;;;;;;21.35;11.82;;;;;;;11.37;80.53;100336.31;4882268;29;20504;-85
2023/03/26 05:59:57;;;;;;;23.90;12.85;;;;;;;11.47;80.50;100330.72;4898951;29;20052;-85
2023/03/26 06:02:46;;;;;;;20.75;11.98;;;;;;;11.74;78.73;100332.06;4885189;29;20052;-85
2023/03/26 06:05:36;;;;;;;22.52;11.93;;;;;;;12.07;77.94;100334.09;4882381;29;20064;-85
2023/03/26 06:08:24;;;;;;;25.60;13.18;;;;;;;11.98;78.06;100342.16;4898443;29;20087;-86
2023/03/26 06:11:01;;;;;;;22.40;13.15;;;;;;;12.10;78.53;100341.75;4907321;29;20052;-85
2023/03/26 06:13:33;;;;;;;21.00;11.88;;;;;;;12.14;78.48;100340.06;4877848;29;20064;-85
2023/03/26 06:16:05;;;;;;;24.52;12.68;;;;;;;12.50;77.18;100338.69;4899936;29;20060;-85
2023/03/26 06:18:36;;;;;;;22.92;12.38;;;;;;;12.70;75.71;100354.00;4881534;29;20060;-86
2023/03/26 06:21:22;;;;;;;20.50;11.98;;;;;;;12.67;76.63;100345.56;4901578;29;20048;-85
2023/03/26 06:23:55;;;;;;;20.00;11.65;;;;;;;12.87;74.84;100350.69;4900642;29;20052;-86
2023/03/26 06:26:46;;;;;;;17.65;11.30;;;;;;;13.09;73.74;100340.97;4893411;29;20072;-85
2023/03/26 06:29:23;;;;;;;20.77;11.60;;;;;;;13.41;72.25;100350.25;4881702;29;20063;-86
2023/03/26 06:32:10;;;;;;;17.65;10.90;;;;;;;13.35;72.27;100336.94;4898510;29;20049;-86
2023/03/26 06:35:01;;;;;;;21.60;11.48;;;;;;;13.27;73.02;100347.53;4881302;29;20053;-86
2023/03/26 06:37:29;;;;;;;19.70;10.82;;;;;;;13.34;71.99;100330.63;4881490;29;20048;-86
2023/03/26 06:40:00;;;;;;;16.70;11.50;;;;;;;13.74;70.14;100327.38;4879868;29;20396;-86
2023/03/26 06:42:47;;;;;;;20.85;11.60;;;;;;;14.05;68.69;100329.47;4898279;29;20092;-86
2023/03/26 06:45:53;;;;;;;16.02;10.00;;;;;;;14.24;66.53;100312.78;4913388;29;20041;-87
2023/03/26 06:48:53;;;;;;;18.08;10.15;;;;;;;14.42;64.80;100332.19;4888793;29;20049;-86
2023/03/26 06:51:40;;;;;;;18.55;10.02;;;;;;;14.57;64.36;100335.72;4880977;29;20060;-86
2023/03/26 06:54:08;;;;;;;17.65;11.55;;;;;;;14.50;64.04;100325.13;4904023;29;20032;-86
2023/03/26 06:56:53;;;;;;;16.13;10.18;;;;;;;14.59;63.77;100322.44;4902125;29;20056;-86
2023/03/26 06:59:42;;;;;;;17.30;9.52;;;;;;;14.85;62.66;100319.03;4899208;29;20064;-84
2023/03/26 07:02:28;;;;;;;17.02;9.82;;;;;;;15.04;61.98;100316.91;4895159;29;20408;-87
2023/03/26 07:05:26;;;;;;;14.25;9.02;;;;;;;15.12;60.32;100317.25;4848550;29;20113;-83
2023/03/26 07:08:12;;;;;;;13.20;8.20;;;;;;;14.87;60.92;100303.81;4909457;29;20040;-82
2023/03/26 07:10:59;;;;;;;15.05;8.57;;;;;;;14.95;60.60;100313.28;4909024;29;20048;-83
2023/03/26 07:13:50;;;;;;;14.23;8.38;;;;;;;15.14;60.61;100304.78;4873839;29;20063;-82
2023/03/26 07:16:37;;;;;;;16.73;9.20;;;;;;;15.30;60.48;100293.34;4900281;29;20052;-83
2023/03/26 07:19:29;;;;;;;14.30;8.50;;;;;;;15.40;60.40;100284.75;4896294;29;20051;-84
2023/03/26 07:21:57;;;;;;;14.60;8.73;;;;;;;15.43;60.15;100286.06;4882653;29;20048;-83
2023/03/26 07:24:44;;;;;;;13.18;8.25;;;;;;;15.66;59.49;100292.28;4914796;29;20043;-84
2023/03/26 07:27:53;;;;;;;14.38;8.95;;;;;;;15.71;59.13;100291.31;4858120;29;20060;-84
2023/03/26 07:30:59;;;;;;;19.17;9.43;;;;;;;15.78;59.79;100288.09;4882127;29;20060;-83
2023/03/26 07:33:43;;;;;;;13.70;8.55;;;;;;;15.91;58.85;100278.03;4916234;29;20055;-84
2023/03/26 07:36:47;;;;;;;15.75;8.65;;;;;;;16.00;58.24;100267.84;4882345;29;20048;-82
2023/03/26 07:40:09;;;;;;;18.75;8.98;;;;;;;16.05;57.72;100259.41;4855450;29;20515;-84
2023/03/26 07:43:34;;;;;;;18.67;10.32;;;;;;;16.21;56.37;100250.63;4860720;29;20049;-82
2023/03/26 07:46:11;;;;;;;15.65;8.00;;;;;;;16.43;56.41;100240.53;4884670;29;20068;-82
2023/03/26 07:49:12;;;;;;;16.35;9.55;;;;;;;16.29;55.94;100244.28;4914919;29;20403;-79
2023/03/26 07:52:00;;;;;;;20.35;9.90;;;;;;;16.24;56.48;100245.25;4880185;29;20053;-80
2023/03/26 07:54:47;;;;;;;15.52;8.60;;;;;;;16.20;56.48;100235.19;4920402;29;20047;-78
2023/03/26 07:57:56;;;;;;;16.33;8.85;;;;;;;16.24;56.31;100228.69;4902446;29;20052;-80
2023/03/26 08:00:58;;;;;;;18.25;9.05;;;;;;;16.03;56.12;100225.78;4879097;29;20067;-82
2023/03/26 08:03:30;;;;;;;;;;;;;;;16.19;56.00;100219.78;4890295;29;20055;-81
2023/03/26 08:06:33;;;;;;;15.35;9.05;;;;;;;16.28;56.35;100205.97;4899064;29;19930;-81
2023/03/26 08:09:25;;;;;;;17.75;9.57;;;;;;;16.20;56.78;100199.31;4888922;29;20064;-81
2023/03/26 08:12:29;;;;;;;11.55;8.15;;;;;;;16.50;57.04;100205.75;4890232;29;20052;-81
2023/03/26 08:15:42;;;;;;;14.93;8.48;;;;;;;16.64;56.97;100210.25;4894339;29;20052;-81
2023/03/26 08:18:26;;;;;;;17.02;8.30;;;;;;;16.64;55.72;100201.97;4906542;29;20055;-82
2023/03/26 08:21:06;;;;;;;10.35;7.07;;;;;;;16.73;55.36;100190.88;4910571;29;20037;-81
2023/03/26 08:23:49;;;;;;;11.75;5.90;;;;;;;16.79;56.07;100186.78;4897398;29;20056;-81
2023/03/26 08:26:46;;;;;;;12.95;6.18;;;;;;;16.65;56.34;100198.88;4906317;29;20047;-79
2023/03/26 08:29:21;;;;;;;10.07;6.45;;;;;;;16.85;56.57;100193.75;4890370;29;20048;-80
2023/03/26 08:31:50;;;;;;;8.23;5.65;;;;;;;16.89;56.13;100191.94;4901248;29;20044;-81
2023/03/26 08:34:18;;;;;;;10.75;5.47;;;;;;;17.28;55.41;100196.63;4881703;29;20052;-78
2023/03/26 08:36:46;;;;;;;8.63;5.78;;;;;;;17.35;55.45;100180.31;4898353;29;20392;-80
2023/03/26 08:39:14;;;;;;;10.63;5.72;;;;;;;17.31;54.89;100193.22;4897790;29;20052;-81
2023/03/26 08:41:55;;;;;;;12.15;6.15;;;;;;;17.00;56.29;100180.50;4890639;29;20051;-80
2023/03/26 08:44:54;;;;;;;8.32;5.43;;;;;;;17.26;56.47;100179.56;4899319;29;20408;-81
2023/03/26 08:47:31;;;;;;;7.50;5.13;;;;;;;17.28;57.65;100155.16;4906736;29;20385;-81
2023/03/26 08:50:27;;;;;;;5.85;5.18;;;;;;;17.16;57.61;100164.97;4900238;29;20048;-81
2023/03/26 08:53:04;;;;;;;8.65;5.60;;;;;;;17.29;58.27;100174.19;4888457;29;20044;-81
2023/03/26 08:56:10;;;;;;;9.43;4.95;;;;;;;17.48;56.96;100166.53;4886699;29;20072;-81
2023/03/26 08:59:47;;;;;;;8.82;5.25;;;;;;;17.32;57.17;100148.59;4870349;29;20068;-82
2023/03/26 09:02:21;;;;;;;;;;;;;;;17.48;56.74;100138.88;4805324;29;20503;-84
2023/03/26 09:05:13;;;;;;;10.07;4.80;;;;;;;17.32;57.77;100122.91;4900737;29;19923;-82
2023/03/26 09:08:02;;;;;;;5.93;4.68;;;;;;;17.72;57.78;100127.97;4899600;29;20061;-81
2023/03/26 09:10:36;;;;;;;5.95;3.78;;;;;;;17.65;57.31;100115.81;4887884;29;20044;-78
2023/03/26 09:13:22;;;;;;;;;;;;;;;17.69;55.32;100117.56;4920608;29;20063;-80
2023/03/26 09:16:25;;;;;;;5.70;3.83;;;;;;;17.99;55.34;100102.78;4883280;29;19927;-80
2023/03/26 09:19:15;;;;;;;5.38;4.10;;;;;;;18.15;54.93;100107.69;4905004;29;20048;-79
2023/03/26 09:21:56;;;;;;;8.18;3.47;;;;;;;17.94;54.58;100094.69;4918625;29;20059;-81
2023/03/26 09:24:36;;;;;;;3.17;2.88;;;;;;;18.33;53.08;100088.91;4895169;29;20399;-81
2023/03/26 09:27:25;;;;;;;4.30;2.85;;;;;;;18.40;52.79;100094.69;4910486;29;20060;-82
2023/03/26 09:30:33;;;;;;;3.58;2.55;;;;;;;18.19;53.05;100090.03;4914264;29;20052;-80
2023/03/26 09:33:10;;;;;;;3.03;2.70;;;;;;;17.68;54.86;100088.28;4909410;29;20048;-81
2023/03/26 09:35:56;;;;;;;3.83;2.85;;;;;;;17.99;54.61;100089.75;4914890;29;20059;-81
2023/03/26 09:38:59;;;;;;;3.42;2.42;;;;;;;18.12;54.57;100095.31;4912031;29;20057;-81
2023/03/26 09:41:53;;;;;;;2.33;2.08;;;;;;;18.22;54.82;100097.66;4913229;29;20068;-82
2023/03/26 09:44:37;;;;;;;2.97;2.20;;;;;;;18.08;54.60;100108.25;4916291;29;20077;-81
2023/03/26 09:47:36;;;;;;;4.03;2.28;;;;;;;18.09;54.48;100093.25;4892496;29;20080;-82
2023/03/26 09:50:28;;;;;;;3.45;2.30;;;;;;;18.12;54.59;100095.31;4899905;29;20052;-81
2023/03/26 09:53:07;;;;;;;5.45;2.53;;;;;;;18.10;54.98;100090.13;4911846;29;20503;-81
2023/03/26 09:56:37;;;;;;;;;;;;;;;;;;;;;
2023/03/26 09:59:28;;;;;;;3.17;2.35;;;;;;;18.27;54.46;100086.34;4825148;29;20065;-80
2023/03/26 10:02:32;;;;;;;5.90;2.83;;;;;;;18.34;54.50;100079.44;4822183;29;20047;-81
2023/03/26 10:05:42;;;;;;;3.55;2.80;;;;;;;18.23;55.29;100079.09;4892324;29;20056;-82
2023/03/26 10:08:38;;;;;;;4.03;2.60;;;;;;;18.49;53.98;100084.31;4895032;29;20063;-81
2023/03/26 10:11:15;;;;;;;4.40;2.97;;;;;;;18.46;53.44;100089.72;4903114;29;20402;-81
2023/03/26 10:14:24;;;;;;;3.28;2.72;;;;;;;18.33;54.27;100095.25;4913982;29;20063;-81
2023/03/26 10:17:10;;;;;;;4.50;2.97;;;;;;;18.59;53.03;100084.97;4905499;29;20051;-81
2023/03/26 10:19:44;;;;;;;3.78;2.60;;;;;;;18.51;53.46;100065.38;4897782;29;20059;-81
2023/03/26 10:22:15;;;;;;;;;;;;;;;18.54;53.69;100075.72;4898040;29;20396;-81
2023/03/26 10:25:20;;;;;;;8.32;2.97;;;;;;;18.36;53.98;100069.63;4897101;29;19927;-82
2023/03/26 10:27:54;;;;;;;5.45;3.35;;;;;;;18.54;53.44;100061.09;4899715;29;20396;-80
2023/03/26 10:30:31;;;;;;;;;;;;;;;18.71;52.96;100062.81;4881901;29;20523;-80
2023/03/26 10:33:21;;;;;;;3.53;2.80;;;;;;;18.26;54.42;100053.47;4889680;29;19927;-82
2023/03/26 10:36:31;;;;;;;3.97;3.00;;;;;;;18.30;53.73;100045.28;4900462;29;20052;-81
2023/03/26 10:39:11;;;;;;;4.15;2.38;;;;;;;18.24;54.30;100047.47;4885922;29;20063;-81
2023/03/26 10:42:20;;;;;;;7.75;3.70;;;;;;;18.41;54.44;100040.88;4910934;29;20040;-82
2023/03/26 10:45:13;;;;;;;3.65;2.53;;;;;;;18.56;53.28;100038.59;4897272;29;20057;-81
2023/03/26 10:48:24;;;;;;;3.95;2.53;;;;;;;18.32;53.74;100041.00;4913824;29;20056;-82
2023/03/26 10:51:01;;;;;;;3.28;2.85;;;;;;;18.08;53.72;100033.50;4892213;29;20130;-81
2023/03/26 10:53:38;;;;;;;4.07;2.83;;;;;;;18.23;53.54;100021.72;4901944;29;20478;-81
2023/03/26 10:56:17;;;;;;;5.78;3.80;;;;;;;18.50;53.94;100016.66;4910321;29;20039;-82
2023/03/26 10:58:46;;;;;;;6.97;3.60;;;;;;;18.87;53.09;100028.84;4893779;29;20503;-81
2023/03/26 11:01:40;;;;;;;8.25;3.42;;;;;;;19.29;51.15;100024.91;4896679;29;20509;-81
2023/03/26 11:04:49;;;;;;;4.20;3.38;;;;;;;19.52;50.59;100019.59;4912508;29;20063;-81
2023/03/26 11:07:25;;;;;;;5.57;3.90;;;;;;;19.98;50.28;100024.78;4904044;29;20059;-81
2023/03/26 11:10:05;;;;;;;5.57;4.30;;;;;;;20.35;48.89;100025.66;4912924;29;20055;-82
2023/03/26 11:12:46;;;;;;;7.35;3.72;;;;;;;20.05;47.88;100015.84;4912840;29;20048;-81
2023/03/26 11:15:40;;;;;;;7.03;3.22;;;;;;;19.99;48.67;100015.28;4906678;29;20044;-81
2023/03/26 11:18:21;;;;;;;5.03;3.33;;;;;;;20.31;48.50;100027.53;4910184;29;20045;-81
2023/03/26 11:21:02;;;;;;;9.25;3.70;;;;;;;20.13;48.55;100023.16;4895760;29;20048;-82
2023/03/26 11:24:24;;;;;;;7.00;3.17;;;;;;;20.26;46.90;100011.97;4881013;29;20051;-80
2023/03/26 11:26:57;;;;;;;7.00;3.53;;;;;;;19.59;48.78;100017.00;4896921;29;20061;-80
2023/03/26 11:30:00;;;;;;;5.10;3.70;;;;;;;19.84;47.69;100013.28;4898848;29;20052;-81
2023/03/26 11:32:41;;;;;;;4.93;3.50;;;;;;;20.08;47.27;99992.88;4900525;29;20048;-81
2023/03/26 11:35:54;;;;;;;4.38;3.67;;;;;;;20.26;47.22;99976.66;4907557;29;20052;-81
2023/03/26 11:38:40;;;;;;;3.95;3.55;;;;;;;20.29;47.80;99961.25;4865257;29;20055;-81
2023/03/26 11:41:15;;;;;;;8.15;4.05;;;;;;;20.32;48.45;99971.63;4880375;29;20503;-81
2023/03/26 11:44:12;;;;;;;6.05;3.40;;;;;;;20.49;47.88;99975.97;4882851;29;20055;-80
2023/03/26 11:46:44;;;;;;;3.28;2.97;;;;;;;20.80;45.56;99973.44;4895972;29;20052;-81
2023/03/26 11:49:17;;;;;;;4.70;3.20;;;;;;;20.43;46.26;99982.19;4905317;29;20059;-80
2023/03/26 11:51:47;;;;;;;5.45;3.50;;;;;;;20.21;45.92;99973.34;4907829;29;20408;-81
2023/03/26 11:54:16;;;;;;;5.15;2.95;;;;;;;20.43;46.32;99971.84;4911010;29;20047;-82
2023/03/26 11:57:00;;;;;;;4.13;2.92;;;;;;;20.32;46.54;99974.41;4900274;29;20049;-81
2023/03/26 11:59:45;;;;;;;3.90;2.80;;;;;;;20.08;47.55;99956.00;4896659;29;20052;-81
2023/03/26 12:02:27;;;;;;;3.72;2.67;;;;;;;19.93;47.27;99954.78;4896840;29;20056;-81
2023/03/26 12:05:20;;;;;;;4.90;2.90;;;;;;;20.38;46.24;99938.81;4896621;29;20051;-80
2023/03/26 12:07:55;;;;;;;3.47;2.55;;;;;;;20.39;46.31;99913.41;4907090;29;20071;-81
2023/03/26 12:10:36;;;;;;;4.03;2.55;;;;;;;20.51;45.56;99912.50;4897217;29;20068;-80
2023/03/26 12:13:28;;;;;;;6.05;3.08;;;;;;;20.06;46.75;99913.88;4887989;29;20788;-81
2023/03/26 12:16:09;;;;;;;3.75;2.58;;;;;;;20.34;46.18;99891.47;4895940;29;20045;-80
2023/03/26 12:18:40;;;;;;;5.28;2.80;;;;;;;20.18;48.73;99885.19;4898935;29;20055;-81
2023/03/26 12:21:16;;;;;;;3.95;3.08;;;;;;;20.41;47.58;99880.53;4896908;29;20048;-81
2023/03/26 12:23:56;;;;;;;5.35;2.88;;;;;;;20.23;46.49;99887.69;4879508;29;20056;-81
2023/03/26 12:26:40;;;;;;;5.13;2.70;;;;;;;20.38;46.59;99892.38;4878962;29;20056;-81